Time,TemperatureF,DewpointF,PressureIn,WindDirection,WindDirectionDegrees,WindSpeedMPH,WindSpeedGustMPH,Humidity,HourlyPrecipIn,Conditions,Clouds,dailyrainin,SoftwareType,DateUTC
2013-02-11 00:01:00,32.0,21.0,29.92,South,175,0.0,5.0,64,0.00,,,0.00,,2013-02-11 08:01:00,
2013-02-11 00:11:00,32.0,22.0,29.93,ENE,77,1.0,3.0,65,0.00,,,0.00,,2013-02-11 08:11:00,
2013-02-11 00:21:00,32.0,22.0,29.93,ENE,77,1.0,3.0,65,0.00,,,0.00,,2013-02-11 08:21:00,
2013-02-11 00:31:00,30.0,21.0,29.93,NNW,348,1.0,4.0,69,0.00,,,0.00,,2013-02-11 08:31:00,
2013-02-11 00:42:00,29.0,21.0,29.92,NNW,348,3.0,4.0,72,0.00,,,0.00,,2013-02-11 08:42:00,
2013-02-11 00:52:00,29.0,21.0,29.92,NNW,348,3.0,4.0,72,0.00,,,0.00,,2013-02-11 08:52:00,
2013-02-11 01:01:00,29.0,21.0,29.93,NNW,348,0.0,4.0,71,0.00,,,0.00,,2013-02-11 09:01:00,
2013-02-11 01:12:00,28.0,20.0,29.93,NNW,348,1.0,4.0,73,0.00,,,0.00,,2013-02-11 09:12:00,
2013-02-11 01:21:00,28.0,20.0,29.93,NNW,348,1.0,4.0,73,0.00,,,0.00,,2013-02-11 09:21:00,
2013-02-11 01:31:00,28.0,20.0,29.93,NNW,348,0.0,3.0,72,0.00,,,0.00,,2013-02-11 09:31:00,
2013-02-11 01:41:00,28.0,20.0,29.93,NNW,348,0.0,3.0,72,0.00,,,0.00,,2013-02-11 09:41:00,
2013-02-11 01:52:00,31.0,22.0,29.93,WNW,296,1.0,3.0,68,0.00,,,0.00,,2013-02-11 09:52:00,
2013-02-11 02:01:00,32.0,22.0,29.93,WNW,289,0.0,4.0,65,0.00,,,0.00,,2013-02-11 10:01:00,
2013-02-11 02:11:00,31.0,21.0,29.93,NNW,344,2.0,4.0,66,0.00,,,0.00,,2013-02-11 10:11:00,
2013-02-11 02:21:00,31.0,21.0,29.93,NNW,344,2.0,4.0,66,0.00,,,0.00,,2013-02-11 10:21:00,
2013-02-11 02:31:00,31.0,21.0,29.93,North,355,1.0,3.0,66,0.00,,,0.00,,2013-02-11 10:31:00,
2013-02-11 02:41:00,31.0,21.0,29.93,NNW,346,1.0,4.0,66,0.00,,,0.00,,2013-02-11 10:41:00,
2013-02-11 02:52:00,31.0,21.0,29.93,NNW,346,1.0,4.0,66,0.00,,,0.00,,2013-02-11 10:52:00,
2013-02-11 03:01:00,32.0,21.0,29.93,WSW,257,2.0,5.0,64,0.00,,,0.00,,2013-02-11 11:01:00,
2013-02-11 03:11:00,32.0,21.0,29.93,WSW,257,2.0,5.0,64,0.00,,,0.00,,2013-02-11 11:11:00,
2013-02-11 03:21:00,32.0,21.0,29.93,SW,236,0.0,4.0,63,0.00,,,0.00,,2013-02-11 11:21:00,
2013-02-11 03:32:00,32.0,20.0,29.93,ENE,65,0.0,4.0,62,0.00,,,0.00,,2013-02-11 11:32:00,
2013-02-11 03:42:00,32.0,20.0,29.93,West,267,2.0,6.0,61,0.00,,,0.00,,2013-02-11 11:42:00,
2013-02-11 03:52:00,32.0,20.0,29.93,West,267,2.0,6.0,61,0.00,,,0.00,,2013-02-11 11:52:00,
2013-02-11 04:02:00,32.0,20.0,29.93,WNW,288,0.0,3.0,61,0.00,,,0.00,,2013-02-11 12:02:00,
2013-02-11 04:12:00,31.0,18.0,29.93,SSW,205,2.0,6.0,58,0.00,,,0.00,,2013-02-11 12:12:00,
2013-02-11 04:22:00,31.0,18.0,29.93,SSW,205,2.0,6.0,58,0.00,,,0.00,,2013-02-11 12:22:00,
2013-02-11 04:31:00,32.0,17.0,29.93,South,184,2.0,6.0,54,0.00,,,0.00,,2013-02-11 12:31:00,
2013-02-11 04:42:00,32.0,17.0,29.93,SSW,198,2.0,6.0,54,0.00,,,0.00,,2013-02-11 12:42:00,
2013-02-11 04:52:00,32.0,17.0,29.93,SSW,198,2.0,6.0,54,0.00,,,0.00,,2013-02-11 12:52:00,
2013-02-11 05:01:00,32.0,17.0,29.94,NNW,345,2.0,5.0,54,0.00,,,0.00,,2013-02-11 13:01:00,
2013-02-11 05:11:00,32.0,17.0,29.94,SSW,197,1.0,6.0,54,0.00,,,0.00,,2013-02-11 13:11:00,
2013-02-11 05:21:00,32.0,17.0,29.94,SSW,197,1.0,6.0,54,0.00,,,0.00,,2013-02-11 13:21:00,
2013-02-11 05:32:00,30.0,17.0,29.94,SW,216,1.0,4.0,57,0.00,,,0.00,,2013-02-11 13:32:00,
2013-02-11 05:41:00,30.0,17.0,29.94,SW,216,1.0,4.0,57,0.00,,,0.00,,2013-02-11 13:41:00,
2013-02-11 05:52:00,31.0,18.0,29.94,ENE,65,1.0,7.0,57,0.00,,,0.00,,2013-02-11 13:52:00,
2013-02-11 06:01:00,31.0,16.0,29.95,NNE,26,2.0,4.0,54,0.00,,,0.00,,2013-02-11 14:01:00,
2013-02-11 06:11:00,31.0,16.0,29.95,NNE,26,2.0,4.0,54,0.00,,,0.00,,2013-02-11 14:11:00,
2013-02-11 06:21:00,32.0,16.0,29.95,East,80,5.0,12.0,51,0.00,,,0.00,,2013-02-11 14:21:00,
2013-02-11 06:32:00,31.0,15.0,29.96,North,360,2.0,7.0,52,0.00,,,0.00,,2013-02-11 14:32:00,
2013-02-11 06:41:00,31.0,15.0,29.96,North,5,0.0,4.0,52,0.00,,,0.00,,2013-02-11 14:41:00,
2013-02-11 06:52:00,31.0,15.0,29.96,North,5,0.0,4.0,52,0.00,,,0.00,,2013-02-11 14:52:00,
2013-02-11 07:01:00,30.0,15.0,29.96,East,84,1.0,5.0,52,0.00,,,0.00,,2013-02-11 15:01:00,
2013-02-11 07:11:00,30.0,14.0,29.97,SSE,153,1.0,5.0,51,0.00,,,0.00,,2013-02-11 15:11:00,
2013-02-11 07:21:00,30.0,14.0,29.97,SSE,153,1.0,5.0,51,0.00,,,0.00,,2013-02-11 15:21:00,
2013-02-11 07:31:00,31.0,15.0,29.97,North,355,1.0,6.0,52,0.00,,,0.00,,2013-02-11 15:31:00,
2013-02-11 07:41:00,30.0,15.0,29.98,East,84,0.0,6.0,52,0.00,,,0.00,,2013-02-11 15:41:00,
2013-02-11 07:52:00,30.0,15.0,29.98,East,84,0.0,6.0,52,0.00,,,0.00,,2013-02-11 15:52:00,
2013-02-11 08:01:00,32.0,15.0,29.99,ESE,109,1.0,6.0,49,0.00,,,0.00,,2013-02-11 16:01:00,
2013-02-11 08:11:00,32.0,15.0,30.00,NW,308,0.0,3.0,49,0.00,,,0.00,,2013-02-11 16:11:00,
2013-02-11 08:21:00,32.0,15.0,30.00,NW,308,0.0,3.0,49,0.00,,,0.00,,2013-02-11 16:21:00,
2013-02-11 08:31:00,32.0,15.0,30.01,South,187,1.0,3.0,49,0.00,,,0.00,,2013-02-11 16:31:00,
2013-02-11 08:41:00,33.0,15.0,30.01,SE,146,2.0,8.0,47,0.00,,,0.00,,2013-02-11 16:41:00,
2013-02-11 08:52:00,33.0,15.0,30.01,SE,146,2.0,8.0,47,0.00,,,0.00,,2013-02-11 16:52:00,
2013-02-11 09:01:00,33.0,15.0,30.02,WSW,240,1.0,3.0,47,0.00,,,0.00,,2013-02-11 17:01:00,
2013-02-11 09:11:00,33.0,15.0,30.02,WSW,240,1.0,3.0,47,0.00,,,0.00,,2013-02-11 17:11:00,
2013-02-11 09:21:00,34.0,15.0,30.02,WSW,242,1.0,9.0,45,0.00,,,0.00,,2013-02-11 17:21:00,
2013-02-11 09:31:00,35.0,14.0,30.02,NNW,340,1.0,8.0,42,0.00,,,0.00,,2013-02-11 17:31:00,
2013-02-11 09:41:00,35.0,14.0,30.02,NNW,340,1.0,8.0,42,0.00,,,0.00,,2013-02-11 17:41:00,
2013-02-11 09:52:00,36.0,17.0,30.03,SSW,205,5.0,10.0,45,0.00,,,0.00,,2013-02-11 17:52:00,
2013-02-11 10:01:00,36.0,16.0,30.03,SSW,197,4.0,8.0,43,0.00,,,0.00,,2013-02-11 18:01:00,
2013-02-11 10:11:00,36.0,16.0,30.03,SSW,197,4.0,8.0,43,0.00,,,0.00,,2013-02-11 18:11:00,
2013-02-11 10:21:00,36.0,19.0,30.04,South,186,7.0,9.0,50,0.00,,,0.00,,2013-02-11 18:21:00,
2013-02-11 10:31:00,36.0,19.0,30.04,SSE,159,4.0,9.0,49,0.00,,,0.00,,2013-02-11 18:31:00,
2013-02-11 10:41:00,36.0,19.0,30.05,South,183,7.0,13.0,49,0.00,,,0.00,,2013-02-11 18:41:00,
2013-02-11 10:53:00,36.0,19.0,30.05,South,183,7.0,13.0,49,0.00,,,0.00,,2013-02-11 18:53:00,
2013-02-11 11:01:00,37.0,18.0,30.05,SSE,149,3.0,14.0,45,0.00,,,0.00,,2013-02-11 19:01:00,
2013-02-11 11:11:00,38.0,18.0,30.05,SSW,198,4.0,8.0,44,0.00,,,0.00,,2013-02-11 19:11:00,
2013-02-11 11:21:00,38.0,18.0,30.05,SSW,198,4.0,8.0,44,0.00,,,0.00,,2013-02-11 19:21:00,
2013-02-11 11:31:00,38.0,19.0,30.05,South,172,4.0,14.0,45,0.00,,,0.00,,2013-02-11 19:31:00,
2013-02-11 11:41:00,38.0,19.0,30.05,South,172,4.0,14.0,45,0.00,,,0.00,,2013-02-11 19:41:00,
2013-02-11 11:51:00,39.0,18.0,30.04,SW,224,3.0,9.0,42,0.00,,,0.00,,2013-02-11 19:51:00,
2013-02-11 12:01:00,38.0,16.0,30.04,South,170,6.0,15.0,41,0.00,,,0.00,,2013-02-11 20:01:00,
2013-02-11 12:11:00,39.0,15.0,30.04,SE,140,1.0,15.0,37,0.00,,,0.00,,2013-02-11 20:11:00,
2013-02-11 12:21:00,39.0,15.0,30.04,SE,140,1.0,15.0,37,0.00,,,0.00,,2013-02-11 20:21:00,
2013-02-11 12:31:00,40.0,16.0,30.03,South,191,9.0,11.0,37,0.00,,,0.00,,2013-02-11 20:31:00,
2013-02-11 12:41:00,40.0,16.0,30.03,SSW,207,6.0,12.0,37,0.00,,,0.00,,2013-02-11 20:41:00,
2013-02-11 12:52:00,40.0,16.0,30.03,SSW,207,6.0,12.0,37,0.00,,,0.00,,2013-02-11 20:52:00,
2013-02-11 13:01:00,40.0,16.0,30.02,SSW,196,8.0,14.0,37,0.00,,,0.00,,2013-02-11 21:01:00,
2013-02-11 13:11:00,41.0,17.0,30.02,South,176,7.0,12.0,38,0.00,,,0.00,,2013-02-11 21:11:00,
2013-02-11 13:21:00,41.0,17.0,30.02,South,176,7.0,12.0,38,0.00,,,0.00,,2013-02-11 21:21:00,
2013-02-11 13:31:00,42.0,18.0,30.02,North,355,3.0,6.0,37,0.00,,,0.00,,2013-02-11 21:31:00,
2013-02-11 13:41:00,42.0,17.0,30.01,SSW,209,6.0,11.0,36,0.00,,,0.00,,2013-02-11 21:41:00,
2013-02-11 13:52:00,42.0,17.0,30.01,SSW,209,6.0,11.0,36,0.00,,,0.00,,2013-02-11 21:52:00,
2013-02-11 14:01:00,43.0,18.0,30.01,West,276,1.0,6.0,36,0.00,,,0.00,,2013-02-11 22:01:00,
2013-02-11 14:11:00,42.0,16.0,30.02,SW,226,4.0,10.0,35,0.00,,,0.00,,2013-02-11 22:11:00,
2013-02-11 14:21:00,42.0,16.0,30.02,SW,226,4.0,10.0,35,0.00,,,0.00,,2013-02-11 22:21:00,
2013-02-11 14:31:00,42.0,16.0,30.02,SSW,199,8.0,13.0,35,0.00,,,0.00,,2013-02-11 22:31:00,
2013-02-11 14:41:00,42.0,16.0,30.02,SSW,199,8.0,13.0,35,0.00,,,0.00,,2013-02-11 22:41:00,
2013-02-11 14:52:00,42.0,15.0,30.02,SW,225,4.0,10.0,33,0.00,,,0.00,,2013-02-11 22:52:00,
2013-02-11 15:01:00,42.0,14.0,30.02,SSW,208,7.0,10.0,31,0.00,,,0.00,,2013-02-11 23:01:00,
2013-02-11 15:11:00,42.0,14.0,30.02,SSW,208,7.0,10.0,31,0.00,,,0.00,,2013-02-11 23:11:00,
2013-02-11 15:21:00,42.0,14.0,30.02,SW,220,2.0,13.0,32,0.00,,,0.00,,2013-02-11 23:21:00,
2013-02-11 15:31:00,42.0,14.0,30.02,South,187,4.0,9.0,32,0.00,,,0.00,,2013-02-11 23:31:00,
2013-02-11 15:41:00,42.0,14.0,30.02,South,187,4.0,9.0,32,0.00,,,0.00,,2013-02-11 23:41:00,
2013-02-11 15:52:00,42.0,15.0,30.02,SSE,148,4.0,8.0,33,0.00,,,0.00,,2013-02-11 23:52:00,
2013-02-11 16:01:00,43.0,15.0,30.03,South,188,2.0,6.0,32,0.00,,,0.00,,2013-02-12 00:01:00,
2013-02-11 16:11:00,43.0,15.0,30.03,South,188,2.0,6.0,32,0.00,,,0.00,,2013-02-12 00:11:00,
2013-02-11 16:21:00,42.0,14.0,30.03,WSW,239,2.0,7.0,31,0.00,,,0.00,,2013-02-12 00:21:00,
2013-02-11 16:31:00,42.0,20.0,30.03,North,350,2.0,3.0,41,0.00,,,0.00,,2013-02-12 00:31:00,
2013-02-11 16:41:00,42.0,20.0,30.03,North,350,2.0,3.0,41,0.00,,,0.00,,2013-02-12 00:41:00,
2013-02-11 16:52:00,40.0,21.0,30.03,NNW,341,3.0,4.0,46,0.00,,,0.00,,2013-02-12 00:52:00,
2013-02-11 17:01:00,39.0,20.0,30.03,NNW,337,3.0,4.0,47,0.00,,,0.00,,2013-02-12 01:01:00,
2013-02-11 17:11:00,39.0,20.0,30.03,NNW,337,3.0,4.0,47,0.00,,,0.00,,2013-02-12 01:11:00,
2013-02-11 17:21:00,37.0,19.0,30.03,NNW,348,4.0,6.0,48,0.00,,,0.00,,2013-02-12 01:21:00,
2013-02-11 17:31:00,37.0,21.0,30.04,North,355,4.0,7.0,52,0.00,,,0.00,,2013-02-12 01:31:00,
2013-02-11 17:41:00,37.0,23.0,30.05,North,360,5.0,8.0,56,0.00,,,0.00,,2013-02-12 01:41:00,
2013-02-11 17:52:00,37.0,23.0,30.05,North,360,5.0,8.0,56,0.00,,,0.00,,2013-02-12 01:52:00,
2013-02-11 18:01:00,36.0,24.0,30.05,NNW,348,5.0,9.0,62,0.00,,,0.00,,2013-02-12 02:01:00,
2013-02-11 18:11:00,35.0,21.0,30.05,NNW,346,3.0,6.0,57,0.00,,,0.00,,2013-02-12 02:11:00,
2013-02-11 18:21:00,35.0,21.0,30.05,NNW,346,3.0,6.0,57,0.00,,,0.00,,2013-02-12 02:21:00,
2013-02-11 18:31:00,34.0,17.0,30.06,North,11,4.0,7.0,49,0.00,,,0.00,,2013-02-12 02:31:00,
2013-02-11 18:41:00,34.0,17.0,30.06,North,11,4.0,7.0,49,0.00,,,0.00,,2013-02-12 02:41:00,
2013-02-11 18:52:00,33.0,18.0,30.06,North,350,4.0,5.0,53,0.00,,,0.00,,2013-02-12 02:52:00,
2013-02-11 19:01:00,33.0,18.0,30.06,NNW,345,4.0,7.0,54,0.00,,,0.00,,2013-02-12 03:01:00,
2013-02-11 19:11:00,32.0,17.0,30.07,North,349,3.0,7.0,54,0.00,,,0.00,,2013-02-12 03:11:00,
2013-02-11 19:21:00,32.0,17.0,30.07,North,349,3.0,7.0,54,0.00,,,0.00,,2013-02-12 03:21:00,
2013-02-11 19:31:00,32.0,16.0,30.07,North,349,3.0,5.0,51,0.00,,,0.00,,2013-02-12 03:31:00,
2013-02-11 19:41:00,32.0,15.0,30.07,North,349,2.0,4.0,50,0.00,,,0.00,,2013-02-12 03:41:00,
2013-02-11 19:51:00,32.0,15.0,30.07,North,349,2.0,4.0,50,0.00,,,0.00,,2013-02-12 03:51:00,
2013-02-11 20:01:00,33.0,12.0,30.08,NNW,347,1.0,4.0,42,0.00,,,0.00,,2013-02-12 04:01:00,
2013-02-11 20:11:00,33.0,12.0,30.08,NNW,347,1.0,4.0,42,0.00,,,0.00,,2013-02-12 04:11:00,
2013-02-11 20:21:00,33.0,12.0,30.09,NNW,347,1.0,3.0,42,0.00,,,0.00,,2013-02-12 04:21:00,
2013-02-11 20:31:00,32.0,13.0,30.09,NNW,346,3.0,5.0,45,0.00,,,0.00,,2013-02-12 04:31:00,
2013-02-11 20:41:00,32.0,13.0,30.09,NNW,346,3.0,5.0,45,0.00,,,0.00,,2013-02-12 04:41:00,
2013-02-11 20:51:00,32.0,13.0,30.09,NNW,339,0.0,2.0,45,0.00,,,0.00,,2013-02-12 04:51:00,
2013-02-11 21:01:00,33.0,11.0,30.10,NNW,339,1.0,2.0,40,0.00,,,0.00,,2013-02-12 05:01:00,
2013-02-11 21:11:00,34.0,11.0,30.10,NNW,339,0.0,2.0,37,0.00,,,0.00,,2013-02-12 05:11:00,
2013-02-11 21:21:00,34.0,11.0,30.10,NNW,339,0.0,2.0,37,0.00,,,0.00,,2013-02-12 05:21:00,
2013-02-11 21:31:00,32.0,11.0,30.10,NNW,339,2.0,3.0,41,0.00,,,0.00,,2013-02-12 05:31:00,
2013-02-11 21:41:00,32.0,11.0,30.10,NNW,339,2.0,3.0,41,0.00,,,0.00,,2013-02-12 05:41:00,
2013-02-11 21:52:00,32.0,10.0,30.11,NNW,339,1.0,3.0,40,0.00,,,0.00,,2013-02-12 05:52:00,
2013-02-11 22:01:00,32.0,10.0,30.11,NNW,339,1.0,2.0,39,0.00,,,0.00,,2013-02-12 06:01:00,
2013-02-11 22:11:00,32.0,12.0,30.11,NNW,333,0.0,3.0,42,0.00,,,0.00,,2013-02-12 06:11:00,
2013-02-11 22:21:00,32.0,12.0,30.11,NNW,333,0.0,3.0,42,0.00,,,0.00,,2013-02-12 06:21:00,
2013-02-11 22:31:00,31.0,13.0,30.11,NNW,333,0.0,1.0,46,0.00,,,0.00,,2013-02-12 06:31:00,
2013-02-11 22:42:00,31.0,11.0,30.11,SW,220,0.0,3.0,42,0.00,,,0.00,,2013-02-12 06:42:00,
2013-02-11 22:52:00,31.0,11.0,30.11,SW,220,0.0,3.0,42,0.00,,,0.00,,2013-02-12 06:52:00,
2013-02-11 23:01:00,32.0,9.0,30.12,North,10,2.0,4.0,38,0.00,,,0.00,,2013-02-12 07:01:00,
2013-02-11 23:11:00,32.0,9.0,30.12,North,10,2.0,4.0,38,0.00,,,0.00,,2013-02-12 07:11:00,
2013-02-11 23:21:00,33.0,9.0,30.12,North,5,4.0,6.0,36,0.00,,,0.00,,2013-02-12 07:21:00,
2013-02-11 23:31:00,32.0,9.0,30.12,North,360,3.0,6.0,37,0.00,,,0.00,,2013-02-12 07:31:00,
2013-02-11 23:41:00,32.0,9.0,30.12,North,360,3.0,6.0,37,0.00,,,0.00,,2013-02-12 07:41:00,
2013-02-11 23:51:00,33.0,10.0,30.12,North,5,2.0,5.0,38,0.00,,,0.00,,2013-02-12 07:51:00,